Time;durP1;ratioP1;P1;durP2;ratioP2;P2;SDS_P1;SDS_P2;PMS_P1;PMS_P2;Temp;Humidity;BMP_temperature;BMP_pressure;BME280_temperature;BME280_humidity;BME280_pressure;Samples;Min_cycle;Max_cycle;Signal;HPM_P1;HPM_P2
2022/04/23 00:01:54;;;;;;;23.00;19.45;;;9.70;99.90;;;;;;7313015;32;20146;-58
2022/04/23 00:05:56;;;;;;;25.52;19.52;;;9.60;99.90;;;;;;7318618;32;22719;-58
2022/04/23 00:09:58;;;;;;;22.73;19.27;;;9.60;99.90;;;;;;7316440;32;20139;-58
2022/04/23 00:14:00;;;;;;;23.17;19.40;;;9.60;99.90;;;;;;7317918;32;20261;-59
2022/04/23 00:18:01;;;;;;;25.00;17.80;;;9.50;99.90;;;;;;7320896;32;20138;-61
2022/04/23 00:22:03;;;;;;;21.85;18.70;;;9.40;99.90;;;;;;7320831;32;20774;-59
2022/04/23 00:26:05;;;;;;;20.73;18.52;;;9.30;99.90;;;;;;7318190;32;20601;-61
2022/04/23 00:30:07;;;;;;;24.95;20.17;;;9.20;99.90;;;;;;7323122;32;20137;-58
2022/04/23 00:34:08;;;;;;;23.65;19.25;;;9.10;99.90;;;;;;7315439;32;20226;-62
2022/04/23 00:38:10;;;;;;;25.02;19.75;;;9.00;99.90;;;;;;7317735;32;20135;-59
2022/04/23 00:42:12;;;;;;;22.92;18.98;;;8.90;99.90;;;;;;7315813;32;20195;-60
2022/04/23 00:46:13;;;;;;;22.85;19.37;;;8.90;99.90;;;;;;7314947;32;20827;-60
2022/04/23 00:50:20;;;;;;;23.60;20.23;;;8.80;99.90;;;;;;7314103;32;20151;-61
2022/04/23 00:54:22;;;;;;;23.30;20.80;;;8.70;99.90;;;;;;7316438;32;20497;-59
2022/04/23 00:58:26;;;;;;;23.27;20.67;;;8.60;99.90;;;;;;7317206;32;20350;-58
2022/04/23 01:02:28;;;;;;;22.87;19.73;;;8.50;99.90;;;;;;7316314;32;20229;-60
2022/04/23 01:06:34;;;;;;;21.00;18.62;;;8.40;99.90;;;;;;7322560;32;20339;-59
2022/04/23 01:10:36;;;;;;;24.67;19.83;;;8.20;99.90;;;;;;7312039;32;20291;-60
2022/04/23 01:14:59;;;;;;;24.10;19.52;;;8.00;99.90;;;;;;7314021;32;20126;-60
2022/04/23 01:19:01;;;;;;;28.02;20.73;;;7.90;99.90;;;;;;7316134;32;20206;-59
2022/04/23 01:23:03;;;;;;;25.42;20.37;;;7.80;99.90;;;;;;7315991;32;20394;-61
2022/04/23 01:27:05;;;;;;;25.65;21.33;;;7.60;99.90;;;;;;7326358;32;20146;-60
2022/04/23 01:31:07;;;;;;;26.90;21.40;;;7.60;99.90;;;;;;7314911;32;20159;-59
2022/04/23 01:35:09;;;;;;;27.05;21.25;;;7.60;99.90;;;;;;7319533;32;20233;-61
2022/04/23 01:39:11;;;;;;;28.38;21.73;;;7.60;99.90;;;;;;7320508;32;20126;-60
2022/04/23 01:43:13;;;;;;;23.38;20.40;;;7.60;99.90;;;;;;7324752;32;20108;-60
2022/04/23 01:47:14;;;;;;;24.98;20.62;;;7.60;99.90;;;;;;7316961;32;20115;-60
2022/04/23 01:51:16;;;;;;;26.90;21.73;;;7.70;99.90;;;;;;7324349;32;20166;-61
2022/04/23 01:55:18;;;;;;;24.87;21.00;;;7.70;99.90;;;;;;7324641;32;20107;-62
2022/04/23 01:59:20;;;;;;;26.30;21.95;;;7.70;99.90;;;;;;7319938;32;20365;-60
2022/04/23 02:03:22;;;;;;;27.90;21.75;;;7.60;99.90;;;;;;7317635;32;20264;-60
2022/04/23 02:07:24;;;;;;;25.85;21.98;;;7.60;99.90;;;;;;7316779;32;20119;-59
2022/04/23 02:11:26;;;;;;;24.12;21.02;;;7.60;99.90;;;;;;7321791;32;20111;-60
2022/04/23 02:15:28;;;;;;;26.15;21.60;;;7.70;99.90;;;;;;7296501;32;21093;-61
2022/04/23 02:19:29;;;;;;;27.00;21.23;;;7.60;99.90;;;;;;7318870;32;20782;-60
2022/04/23 02:23:31;;;;;;;27.27;21.87;;;7.60;99.90;;;;;;7323166;32;20129;-61
2022/04/23 02:27:45;;;;;;;24.58;21.65;;;7.50;99.90;;;;;;7324305;32;20800;-60
2022/04/23 02:31:46;;;;;;;24.73;20.40;;;7.40;99.90;;;;;;7317082;32;20173;-60
2022/04/23 02:35:50;;;;;;;26.52;20.60;;;7.40;99.90;;;;;;7322682;32;20179;-60
2022/04/23 02:39:51;;;;;;;26.58;21.80;;;7.40;99.90;;;;;;7320746;32;20115;-60
2022/04/23 02:43:54;;;;;;;26.98;21.40;;;7.50;99.90;;;;;;7327703;32;20111;-60
2022/04/23 02:47:56;;;;;;;27.30;21.48;;;7.60;99.90;;;;;;7317710;32;20527;-60
2022/04/23 02:51:58;;;;;;;26.80;21.60;;;7.70;99.90;;;;;;7319049;32;20268;-60
2022/04/23 02:56:02;;;;;;;24.37;20.30;;;7.70;99.90;;;;;;7319458;32;20190;-60
2022/04/23 03:00:06;;;;;;;27.27;22.13;;;7.80;99.90;;;;;;7318396;32;20398;-59
2022/04/23 03:04:10;;;;;;;28.98;22.80;;;7.80;99.90;;;;;;7316549;32;20112;-59
2022/04/23 03:08:12;;;;;;;26.17;21.25;;;7.90;99.90;;;;;;7318425;32;20585;-59
2022/04/23 03:12:14;;;;;;;29.48;22.50;;;8.00;99.90;;;;;;7320100;32;20119;-60
2022/04/23 03:16:16;;;;;;;29.27;23.10;;;8.00;99.90;;;;;;7321816;32;20250;-60
2022/04/23 03:20:18;;;;;;;28.65;22.60;;;8.10;99.90;;;;;;7318360;32;20556;-59
2022/04/23 03:24:19;;;;;;;28.60;24.20;;;8.10;99.90;;;;;;7324854;32;20162;-59
2022/04/23 03:28:22;;;;;;;31.40;24.63;;;8.10;99.90;;;;;;7318656;32;20251;-60
2022/04/23 03:32:23;;;;;;;31.67;24.65;;;8.10;99.90;;;;;;7317334;32;20479;-60
2022/04/23 03:36:25;;;;;;;31.92;25.83;;;8.20;99.90;;;;;;7318641;32;20143;-60
2022/04/23 03:40:27;;;;;;;34.00;27.08;;;8.10;99.90;;;;;;7327125;32;20107;-60
2022/04/23 03:44:30;;;;;;;35.22;26.58;;;8.20;99.90;;;;;;7323962;32;20538;-58
2022/04/23 03:48:32;;;;;;;37.80;28.42;;;8.10;99.90;;;;;;7317834;32;20813;-62
2022/04/23 03:52:33;;;;;;;40.03;30.65;;;8.10;99.90;;;;;;7314097;32;20138;-59
2022/04/23 03:56:35;;;;;;;36.13;29.30;;;8.10;99.90;;;;;;7310166;32;21152;-58
2022/04/23 04:00:37;;;;;;;39.38;30.60;;;8.20;99.90;;;;;;7305902;32;20700;-58
2022/04/23 04:04:38;;;;;;;38.15;30.23;;;8.10;99.90;;;;;;7305196;32;20186;-58
2022/04/23 04:08:40;;;;;;;36.88;29.92;;;8.10;99.90;;;;;;7312616;32;20104;-61
2022/04/23 04:12:42;;;;;;;36.15;29.98;;;8.10;99.90;;;;;;7324052;32;20130;-60
2022/04/23 04:16:45;;;;;;;40.40;31.23;;;8.10;99.90;;;;;;7312804;32;20226;-60
2022/04/23 04:20:49;;;;;;;41.70;33.25;;;8.00;99.90;;;;;;7318141;32;20568;-60
2022/04/23 04:24:50;;;;;;;45.70;35.30;;;8.10;99.90;;;;;;7308094;32;20124;-59
2022/04/23 04:28:52;;;;;;;40.75;33.83;;;8.10;99.90;;;;;;7320587;32;20254;-61
2022/04/23 04:32:54;;;;;;;47.17;35.95;;;8.10;99.90;;;;;;7306272;32;20146;-60
2022/04/23 04:37:08;;;;;;;46.55;35.80;;;8.10;99.90;;;;;;7315140;32;20107;-60
2022/04/23 04:41:10;;;;;;;46.88;36.03;;;8.10;99.90;;;;;;7318468;32;20297;-60
2022/04/23 04:45:12;;;;;;;48.63;36.95;;;8.10;99.90;;;;;;7312529;32;20111;-61
2022/04/23 04:49:13;;;;;;;48.13;36.58;;;8.10;99.90;;;;;;7315504;32;20234;-61
2022/04/23 04:53:15;;;;;;;48.47;35.95;;;8.10;99.90;;;;;;7315460;32;20247;-61
2022/04/23 04:57:17;;;;;;;47.90;37.65;;;8.10;99.90;;;;;;7323575;32;20513;-60
2022/04/23 05:01:19;;;;;;;50.30;37.28;;;8.20;99.90;;;;;;7322863;32;20310;-60
2022/04/23 05:05:21;;;;;;;49.72;37.08;;;8.30;99.90;;;;;;7317616;32;20107;-59
2022/04/23 05:09:23;;;;;;;45.25;36.65;;;8.30;99.90;;;;;;7317143;32;20761;-60
2022/04/23 05:13:24;;;;;;;44.47;36.42;;;8.40;99.90;;;;;;7319504;32;20103;-60
2022/04/23 05:17:26;;;;;;;46.78;36.72;;;8.50;99.90;;;;;;7316111;32;20241;-60
2022/04/23 05:21:28;;;;;;;44.03;35.60;;;8.50;99.90;;;;;;7319065;32;20107;-60
2022/04/23 05:25:29;;;;;;;42.83;34.83;;;8.70;99.90;;;;;;7323570;32;20933;-60
2022/04/23 05:29:31;;;;;;;38.50;33.78;;;8.80;99.90;;;;;;7313725;32;20202;-60
2022/04/23 05:33:33;;;;;;;42.20;34.97;;;8.90;99.90;;;;;;7312858;32;20841;-60
2022/04/23 05:37:34;;;;;;;41.58;35.03;;;9.00;99.90;;;;;;7321529;32;20652;-60
2022/04/23 05:41:36;;;;;;;40.22;34.08;;;9.00;99.90;;;;;;7323430;32;20104;-59
2022/04/23 05:45:38;;;;;;;41.78;33.35;;;9.10;99.90;;;;;;7315258;32;20134;-59
2022/04/23 05:49:39;;;;;;;36.83;32.38;;;9.30;99.90;;;;;;7315706;32;20254;-60
2022/04/23 05:53:56;;;;;;;38.10;32.77;;;9.40;99.90;;;;;;7313154;32;20231;-60
2022/04/23 05:58:05;;;;;;;36.70;31.12;;;9.50;99.90;;;;;;7315949;32;20555;-59
2022/04/23 06:02:07;;;;;;;37.13;31.67;;;9.60;99.90;;;;;;7313992;32;20147;-60
2022/04/23 06:06:12;;;;;;;35.40;30.27;;;9.80;99.90;;;;;;7311743;32;20116;-59
2022/04/23 06:10:14;;;;;;;34.78;30.80;;;9.90;99.90;;;;;;7317367;32;20197;-59
2022/04/23 06:14:15;;;;;;;35.13;29.63;;;9.90;99.90;;;;;;7321015;32;20561;-60
2022/04/23 06:18:17;;;;;;;36.95;30.50;;;10.10;99.90;;;;;;7315560;32;20790;-59
2022/04/23 06:22:19;;;;;;;37.65;30.88;;;10.10;99.90;;;;;;7311077;32;20471;-61
2022/04/23 06:26:21;;;;;;;33.03;28.73;;;10.20;99.90;;;;;;7318888;32;20186;-61
2022/04/23 06:30:23;;;;;;;32.92;29.08;;;10.30;99.90;;;;;;7318351;32;21832;-62
2022/04/23 06:34:25;;;;;;;30.83;27.50;;;10.50;99.90;;;;;;7318863;32;20190;-62
2022/04/23 06:38:27;;;;;;;33.00;27.67;;;10.50;99.90;;;;;;7317189;32;20500;-63
2022/04/23 06:42:28;;;;;;;31.55;27.35;;;10.70;99.90;;;;;;7321720;32;20436;-62
2022/04/23 06:46:30;;;;;;;29.58;26.08;;;10.80;99.90;;;;;;7317272;32;20975;-63
2022/04/23 06:50:33;;;;;;;31.48;26.67;;;11.00;99.90;;;;;;7317393;32;20151;-64
2022/04/23 06:54:35;;;;;;;29.65;25.98;;;11.10;99.90;;;;;;7316744;32;20145;-64
2022/04/23 06:58:37;;;;;;;26.12;23.33;;;11.20;99.90;;;;;;7321097;32;20103;-63
2022/04/23 07:02:39;;;;;;;28.12;25.10;;;11.40;99.90;;;;;;7319382;32;20116;-64
2022/04/23 07:06:41;;;;;;;25.27;22.58;;;11.60;99.90;;;;;;7319184;32;20131;-64
2022/04/23 07:10:46;;;;;;;25.55;21.25;;;12.00;99.90;;;;;;7319148;32;20129;-64
2022/04/23 07:14:49;;;;;;;24.25;20.67;;;12.20;99.90;;;;;;7324198;32;20827;-63
2022/04/23 07:18:53;;;;;;;24.65;20.02;;;12.50;99.90;;;;;;7314162;32;20238;-62
2022/04/23 07:27:16;;;;;;;22.00;19.48;;;13.00;99.90;;;;;;7318615;32;20531;-62
2022/04/23 07:31:18;;;;;;;21.30;19.02;;;13.20;99.90;;;;;;7316432;32;20199;-63
2022/04/23 07:39:40;;;;;;;19.80;17.77;;;13.20;99.90;;;;;;7308441;32;20213;-63
2022/04/23 07:43:43;;;;;;;21.95;19.15;;;13.30;99.90;;;;;;7311059;32;20116;-60
2022/04/23 07:47:46;;;;;;;19.00;17.00;;;13.40;99.90;;;;;;7306704;32;20138;-59
2022/04/23 07:51:47;;;;;;;20.08;17.95;;;13.60;99.90;;;;;;7317014;32;20130;-61
2022/04/23 07:55:49;;;;;;;20.12;18.02;;;13.70;99.90;;;;;;7318870;32;20727;-61
2022/04/23 07:59:51;;;;;;;18.23;16.33;;;13.80;99.90;;;;;;7320294;32;20214;-59
2022/04/23 08:03:53;;;;;;;18.58;16.67;;;14.30;99.90;;;;;;7317828;32;20138;-60
2022/04/23 08:07:54;;;;;;;17.62;15.75;;;14.30;99.90;;;;;;7314605;32;20222;-63
2022/04/23 08:11:56;;;;;;;18.10;16.30;;;14.40;99.90;;;;;;7321275;32;20185;-63
2022/04/23 08:15:59;;;;;;;17.65;15.85;;;14.70;99.90;;;;;;7318542;32;20189;-64
2022/04/23 08:20:00;;;;;;;16.58;14.90;;;14.70;99.90;;;;;;7311887;32;20574;-63
2022/04/23 08:24:02;;;;;;;14.45;13.07;;;14.80;99.90;;;;;;7318261;32;20137;-63
2022/04/23 08:32:24;;;;;;;16.50;14.80;;;15.20;99.90;;;;;;7319467;32;20134;-63
2022/04/23 08:36:27;;;;;;;16.40;14.80;;;14.90;99.90;;;;;;7319440;32;20175;-63
2022/04/23 08:40:34;;;;;;;17.85;15.93;;;14.70;99.90;;;;;;7314692;32;20111;-62
2022/04/23 08:44:40;;;;;;;17.85;15.90;;;14.40;99.90;;;;;;7313390;32;20290;-62
2022/04/23 08:48:45;;;;;;;18.95;16.23;;;14.90;99.90;;;;;;7313705;32;20107;-63
2022/04/23 08:52:54;;;;;;;18.15;16.30;;;15.20;99.90;;;;;;7314680;32;20111;-63
2022/04/23 08:56:55;;;;;;;17.45;15.65;;;15.30;99.90;;;;;;7314590;32;20226;-63
2022/04/23 09:00:57;;;;;;;15.45;13.88;;;15.70;99.90;;;;;;7316427;32;20181;-64
2022/04/23 09:04:58;;;;;;;14.73;13.30;;;15.90;99.90;;;;;;7319384;32;20137;-63
2022/04/23 09:09:20;;;;;;;16.85;15.15;;;15.70;99.90;;;;;;7319400;32;20637;-63
2022/04/23 09:13:27;;;;;;;15.27;13.68;;;15.80;99.90;;;;;;7309493;32;20186;-63
2022/04/23 09:26:18;;;;;;;15.23;13.62;;;16.20;99.90;;;;;;7313697;32;20114;-64
2022/04/23 09:30:20;;;;;;;13.48;12.00;;;15.80;99.90;;;;;;7313906;32;20111;-60
2022/04/23 09:34:23;;;;;;;13.30;11.82;;;16.10;99.90;;;;;;7315531;32;20484;-62
2022/04/23 09:38:26;;;;;;;13.10;11.80;;;16.60;99.90;;;;;;7316028;32;20842;-64
2022/04/23 09:42:28;;;;;;;13.68;12.37;;;17.20;99.90;;;;;;7316371;32;20135;-64
2022/04/23 09:46:45;;;;;;;13.30;11.93;;;17.30;99.90;;;;;;7316022;32;20111;-66
2022/04/23 09:51:05;;;;;;;13.77;11.95;;;17.20;99.90;;;;;;7322115;32;20223;-62
2022/04/23 09:55:08;;;;;;;12.07;10.80;;;17.20;99.90;;;;;;7322937;32;20560;-63
2022/04/23 09:59:11;;;;;;;12.93;10.90;;;17.10;99.90;;;;;;7311561;32;20141;-63
2022/04/23 10:03:14;;;;;;;13.23;11.68;;;17.80;99.90;;;;;;7318615;32;20128;-65
2022/04/23 10:07:17;;;;;;;12.57;10.95;;;18.60;99.90;;;;;;7312351;32;20103;-63
2022/04/23 10:11:30;;;;;;;12.25;10.90;;;18.30;99.90;;;;;;7321101;32;20528;-63
2022/04/23 10:15:33;;;;;;;13.50;10.38;;;18.80;99.90;;;;;;7320847;32;20191;-63
2022/04/23 10:19:35;;;;;;;13.02;10.75;;;19.60;99.60;;;;;;7318612;32;20106;-62
2022/04/23 10:24:10;;;;;;;12.23;10.93;;;19.70;97.70;;;;;;7321482;32;20112;-63
2022/04/23 10:28:12;;;;;;;12.35;10.35;;;19.90;95.50;;;;;;7315796;32;20134;-64
2022/04/23 10:32:14;;;;;;;14.68;11.68;;;19.40;96.20;;;;;;7315520;32;20530;-65
2022/04/23 10:36:16;;;;;;;13.73;11.02;;;18.40;96.90;;;;;;7311354;32;20134;-65
2022/04/23 10:40:21;;;;;;;10.45;9.35;;;17.90;97.40;;;;;;7323373;32;20116;-63
2022/04/23 10:44:22;;;;;;;10.23;9.18;;;18.40;99.30;;;;;;7324280;32;20103;-64
2022/04/23 10:48:26;;;;;;;11.40;9.60;;;18.40;97.70;;;;;;7323597;32;20190;-64
2022/04/23 10:52:35;;;;;;;10.15;8.15;;;18.50;98.30;;;;;;7323742;32;20542;-63
2022/04/23 10:56:36;;;;;;;8.95;8.05;;;18.60;96.40;;;;;;7324070;32;20423;-63
2022/04/23 11:00:44;;;;;;;8.60;7.37;;;18.50;97.60;;;;;;7323276;32;20279;-64
2022/04/23 11:13:54;;;;;;;9.48;8.48;;;18.90;96.60;;;;;;7314826;32;21096;-65
2022/04/23 11:17:58;;;;;;;9.75;8.75;;;19.10;96.60;;;;;;7323089;32;20330;-64
2022/04/23 11:22:00;;;;;;;10.20;8.48;;;19.10;95.70;;;;;;7323535;32;20179;-64
2022/04/23 11:26:02;;;;;;;11.07;8.40;;;18.70;96.20;;;;;;7324048;32;20202;-63
2022/04/23 11:30:05;;;;;;;10.07;8.55;;;19.20;94.90;;;;;;7322760;32;20112;-64
2022/04/23 11:34:07;;;;;;;11.12;8.98;;;19.00;94.50;;;;;;7323196;32;20134;-64
2022/04/23 11:38:19;;;;;;;10.63;9.52;;;18.90;95.70;;;;;;7320023;32;20120;-63
2022/04/23 11:42:44;;;;;;;11.35;10.13;;;19.50;96.00;;;;;;7322840;32;20807;-64
2022/04/23 11:46:53;;;;;;;11.63;10.10;;;19.50;94.20;;;;;;7322621;32;20138;-62
2022/04/23 11:51:05;;;;;;;13.05;10.48;;;19.30;92.50;;;;;;7322468;32;20116;-62
2022/04/23 11:55:11;;;;;;;11.07;9.77;;;18.60;93.30;;;;;;7317312;32;20112;-64
2022/04/23 11:59:12;;;;;;;12.48;10.15;;;19.00;94.20;;;;;;7318758;32;20792;-63
2022/04/23 12:03:25;;;;;;;10.05;8.95;;;18.60;93.90;;;;;;7313311;32;21039;-67
2022/04/23 12:07:31;;;;;;;11.88;9.20;;;18.80;96.30;;;;;;7310454;32;20760;-67
2022/04/23 12:11:32;;;;;;;10.25;8.73;;;18.40;94.80;;;;;;7320712;32;20203;-67
2022/04/23 12:15:43;;;;;;;9.52;8.30;;;18.40;93.20;;;;;;7326536;32;20135;-66
2022/04/23 12:19:46;;;;;;;8.88;7.97;;;18.30;94.50;;;;;;7321503;32;20139;-65
2022/04/23 12:23:49;;;;;;;8.80;7.90;;;18.80;93.30;;;;;;7319691;32;20138;-65
2022/04/23 12:41:14;;;;;;;10.55;8.30;;;18.50;91.80;;;;;;7317165;32;20223;-59
2022/04/23 12:45:20;;;;;;;9.27;8.23;;;18.80;91.50;;;;;;7316153;32;20253;-57
2022/04/23 12:49:22;;;;;;;9.48;8.48;;;19.00;92.50;;;;;;7315022;32;20808;-59
2022/04/23 12:53:34;;;;;;;10.07;9.00;;;18.50;91.30;;;;;;7319141;32;20244;-59
2022/04/23 12:57:36;;;;;;;10.30;9.20;;;18.70;91.80;;;;;;7313979;32;20130;-59
2022/04/23 13:01:37;;;;;;;12.00;10.18;;;18.50;93.80;;;;;;7325605;32;20115;-59
2022/04/23 13:05:40;;;;;;;10.40;8.82;;;18.70;92.20;;;;;;7321560;32;20146;-59
2022/04/23 13:09:41;;;;;;;11.05;9.95;;;18.90;93.20;;;;;;7317334;32;20258;-62
2022/04/23 13:13:43;;;;;;;11.05;9.93;;;18.70;90.70;;;;;;7319736;32;20542;-57
2022/04/23 13:17:46;;;;;;;11.90;10.10;;;19.10;92.80;;;;;;7318270;32;20222;-63
2022/04/23 13:21:48;;;;;;;10.00;8.98;;;18.80;90.50;;;;;;7320842;32;20111;-63
2022/04/23 13:25:50;;;;;;;13.15;9.30;;;18.50;91.50;;;;;;7316204;32;20605;-63
2022/04/23 13:29:52;;;;;;;10.77;9.55;;;18.90;89.80;;;;;;7322809;32;20908;-63
2022/04/23 13:33:53;;;;;;;9.73;8.70;;;18.80;91.90;;;;;;7321928;32;20134;-64
2022/04/23 13:37:55;;;;;;;13.88;8.70;;;18.20;90.30;;;;;;7322113;32;20212;-64
2022/04/23 13:41:57;;;;;;;12.37;9.05;;;18.20;91.70;;;;;;7322559;32;20571;-62
2022/04/23 13:45:59;;;;;;;13.05;9.35;;;18.30;92.90;;;;;;7318384;32;20425;-63
2022/04/23 13:50:00;;;;;;;10.18;8.90;;;17.90;92.00;;;;;;7323138;32;20212;-62
2022/04/23 13:54:02;;;;;;;9.98;8.98;;;18.10;92.40;;;;;;7319897;32;22179;-62
2022/04/23 13:58:04;;;;;;;9.55;8.32;;;18.50;91.60;;;;;;7324453;32;20202;-63
2022/04/23 14:11:03;;;;;;;10.48;7.80;;;18.00;90.60;;;;;;7245298;32;20111;-59
2022/04/23 14:15:06;;;;;;;9.95;7.62;;;18.20;92.10;;;;;;7319699;32;20785;-60
2022/04/23 14:19:08;;;;;;;9.80;8.40;;;18.50;91.60;;;;;;7326806;32;20542;-60
2022/04/23 14:23:10;;;;;;;11.77;8.82;;;18.60;90.30;;;;;;7322527;32;20120;-60
2022/04/23 14:27:12;;;;;;;10.23;8.65;;;18.00;92.00;;;;;;7315239;32;20902;-63
2022/04/23 14:31:14;;;;;;;9.95;8.73;;;17.60;93.90;;;;;;7322254;32;20108;-63
2022/04/23 14:35:16;;;;;;;10.25;8.77;;;17.40;93.50;;;;;;7323058;32;20131;-62
2022/04/23 14:39:17;;;;;;;12.35;9.82;;;17.40;94.80;;;;;;7318111;32;20757;-63
2022/04/23 14:43:19;;;;;;;11.10;9.93;;;17.20;94.40;;;;;;7324342;32;20587;-63
2022/04/23 14:47:21;;;;;;;13.60;9.90;;;16.90;94.70;;;;;;7325715;32;20111;-62
2022/04/23 14:55:43;;;;;;;12.43;9.90;;;16.80;95.70;;;;;;7320001;32;20108;-63
2022/04/23 14:59:45;;;;;;;13.65;11.10;;;16.80;96.00;;;;;;7322715;32;20163;-63
2022/04/23 15:03:47;;;;;;;12.37;10.55;;;16.80;95.80;;;;;;7325793;32;20115;-62
2022/04/23 15:07:48;;;;;;;11.43;10.25;;;16.70;96.80;;;;;;7319102;32;20202;-63
2022/04/23 15:11:51;;;;;;;10.65;9.45;;;16.60;96.80;;;;;;7318863;32;20180;-63
2022/04/23 15:15:53;;;;;;;11.95;10.02;;;16.70;96.60;;;;;;7329401;32;20137;-64
2022/04/23 15:19:55;;;;;;;11.15;9.93;;;16.50;95.70;;;;;;7327532;32;20776;-63
2022/04/23 15:23:57;;;;;;;10.15;9.00;;;16.50;95.90;;;;;;7319507;32;20400;-62
2022/04/23 15:27:59;;;;;;;10.07;8.93;;;16.70;95.50;;;;;;7322931;32;20543;-63
2022/04/23 15:32:00;;;;;;;8.02;7.12;;;16.80;95.70;;;;;;7319943;32;20122;-62
2022/04/23 15:36:03;;;;;;;8.60;7.32;;;16.90;93.40;;;;;;7318973;32;20632;-63
2022/04/23 15:40:07;;;;;;;11.32;7.37;;;16.90;94.10;;;;;;7324502;32;20584;-63
2022/04/23 15:44:08;;;;;;;9.07;7.32;;;17.00;94.20;;;;;;7323549;32;20116;-61
2022/04/23 15:48:10;;;;;;;11.20;8.65;;;16.90;94.80;;;;;;7320723;32;20149;-64
2022/04/23 15:52:15;;;;;;;14.45;8.82;;;16.70;93.70;;;;;;7320457;32;20521;-62
2022/04/23 15:56:17;;;;;;;11.75;8.27;;;16.70;94.70;;;;;;7313810;32;20108;-63
2022/04/23 16:00:19;;;;;;;10.80;9.45;;;16.60;95.60;;;;;;7314196;32;20146;-62
2022/04/23 16:04:22;;;;;;;10.15;9.10;;;16.50;94.90;;;;;;7316622;32;20141;-61
2022/04/23 16:08:24;;;;;;;9.75;8.63;;;16.60;96.40;;;;;;7322147;32;20108;-62
2022/04/23 16:12:26;;;;;;;9.80;8.20;;;16.70;96.30;;;;;;7315398;32;20220;-63
2022/04/23 16:16:28;;;;;;;11.93;9.68;;;16.80;96.10;;;;;;7315289;32;20116;-62
2022/04/23 16:20:31;;;;;;;11.15;9.57;;;16.70;96.00;;;;;;7312087;32;20138;-63
2022/04/23 16:24:33;;;;;;;10.73;9.57;;;16.70;97.40;;;;;;7318478;32;20254;-64
2022/04/23 16:28:36;;;;;;;11.43;9.60;;;16.60;96.60;;;;;;7312267;32;20490;-64
2022/04/23 16:32:38;;;;;;;12.73;9.88;;;16.70;96.90;;;;;;7318566;32;20142;-63
2022/04/23 16:49:41;;;;;;;10.65;9.48;;;16.30;98.00;;;;;;7317217;32;20176;-64
2022/04/23 16:53:45;;;;;;;11.70;10.38;;;16.30;98.30;;;;;;7316937;32;20605;-63
2022/04/23 16:57:48;;;;;;;11.70;10.50;;;16.10;98.20;;;;;;7313692;32;20203;-63
2022/04/23 17:01:51;;;;;;;14.85;10.35;;;16.10;98.30;;;;;;7316778;32;20270;-61
2022/04/23 17:05:54;;;;;;;12.95;9.93;;;16.00;98.70;;;;;;7318836;32;20124;-62
2022/04/23 17:09:55;;;;;;;11.75;10.25;;;15.90;99.80;;;;;;7316247;32;20172;-62
2022/04/23 17:13:57;;;;;;;13.55;10.88;;;15.90;99.90;;;;;;7319041;32;20837;-63
2022/04/23 17:17:58;;;;;;;12.57;10.20;;;15.90;99.80;;;;;;7312887;32;20457;-62
2022/04/23 17:22:00;;;;;;;12.93;10.70;;;15.90;99.90;;;;;;7316992;32;20621;-64
2022/04/23 17:26:02;;;;;;;12.25;10.05;;;15.80;99.90;;;;;;7315091;32;20366;-63
2022/04/23 17:30:06;;;;;;;10.45;9.35;;;15.80;99.90;;;;;;7311511;32;20318;-61
2022/04/23 17:34:07;;;;;;;10.93;9.55;;;15.70;99.90;;;;;;7312962;32;20538;-62
2022/04/23 17:42:29;;;;;;;13.75;9.30;;;15.70;99.90;;;;;;7309150;32;20349;-64
2022/04/23 17:46:31;;;;;;;12.15;10.00;;;15.60;99.90;;;;;;7316666;32;20142;-64
2022/04/23 17:50:33;;;;;;;11.63;9.30;;;15.60;99.90;;;;;;7316951;32;20676;-64
2022/04/23 17:54:35;;;;;;;11.60;9.75;;;15.50;99.90;;;;;;7315001;32;20153;-64
2022/04/23 17:58:37;;;;;;;10.20;8.32;;;15.50;99.90;;;;;;7315865;32;20142;-64
2022/04/23 18:11:20;;;;;;;10.55;7.72;;;15.30;99.90;;;;;;7318154;32;20129;-63
2022/04/23 18:15:22;;;;;;;7.93;6.85;;;15.30;99.90;;;;;;7323733;32;20143;-66
2022/04/23 18:19:29;;;;;;;8.88;7.78;;;15.20;99.90;;;;;;7321007;32;20150;-64
2022/04/23 18:23:31;;;;;;;10.88;8.60;;;15.20;99.90;;;;;;7311578;32;20173;-63
2022/04/23 18:27:33;;;;;;;19.23;11.12;;;15.10;99.90;;;;;;7317881;32;20220;-66
2022/04/23 18:31:35;;;;;;;9.13;6.45;;;15.20;99.90;;;;;;7328830;32;20336;-65
2022/04/23 18:35:38;;;;;;;8.93;7.03;;;15.10;99.90;;;;;;7322906;32;20174;-65
2022/04/23 18:39:40;;;;;;;8.50;7.60;;;15.00;99.90;;;;;;7318538;32;20126;-67
2022/04/23 18:43:42;;;;;;;8.88;6.95;;;14.90;99.90;;;;;;7317878;32;20251;-64
2022/04/23 18:47:43;;;;;;;7.22;6.43;;;14.90;99.90;;;;;;7325254;32;20186;-66
2022/04/23 18:51:46;;;;;;;8.57;6.57;;;14.90;99.90;;;;;;7321839;32;20194;-65
2022/04/23 18:55:48;;;;;;;7.32;6.28;;;14.90;99.90;;;;;;7324059;32;20108;-65
2022/04/23 18:59:49;;;;;;;8.80;6.43;;;14.90;99.90;;;;;;7313221;32;20131;-63
2022/04/23 19:03:52;;;;;;;7.12;6.43;;;14.80;99.90;;;;;;7321142;32;20757;-63
2022/04/23 19:07:54;;;;;;;8.82;7.30;;;14.70;99.90;;;;;;7324812;32;20240;-64
2022/04/23 19:11:56;;;;;;;7.70;6.60;;;14.60;99.90;;;;;;7319389;32;20198;-63
2022/04/23 19:15:58;;;;;;;8.32;7.12;;;14.60;99.90;;;;;;7314790;32;20111;-64
2022/04/23 19:20:02;;;;;;;8.70;6.55;;;14.60;99.90;;;;;;7334460;32;20689;-65
2022/04/23 19:28:30;;;;;;;7.60;6.47;;;14.50;99.90;;;;;;7321372;32;20112;-64
2022/04/23 19:32:32;;;;;;;10.05;5.90;;;14.50;99.90;;;;;;7317254;32;20146;-65
2022/04/23 19:36:35;;;;;;;7.65;5.78;;;14.40;99.90;;;;;;7317501;32;20215;-65
2022/04/23 19:40:36;;;;;;;6.95;5.15;;;14.50;99.20;;;;;;7321372;32;20549;-64
2022/04/23 19:44:38;;;;;;;8.00;5.00;;;14.40;99.20;;;;;;7320207;32;20111;-63
2022/04/23 19:48:40;;;;;;;6.35;4.68;;;14.40;98.10;;;;;;7314274;32;20214;-65
2022/04/23 19:52:42;;;;;;;6.07;4.35;;;14.30;97.10;;;;;;7312705;32;20116;-64
2022/04/23 19:56:44;;;;;;;6.32;3.85;;;14.20;97.20;;;;;;7314376;32;20195;-64
2022/04/23 20:00:45;;;;;;;5.10;3.70;;;14.20;96.00;;;;;;7316148;32;20851;-64
2022/04/23 20:04:47;;;;;;;6.65;4.05;;;14.20;95.10;;;;;;7319014;32;20103;-65
2022/04/23 20:08:49;;;;;;;6.72;3.80;;;14.10;94.90;;;;;;7313852;32;20746;-63
2022/04/23 20:12:51;;;;;;;4.15;3.60;;;14.20;93.50;;;;;;7319146;32;20163;-64
2022/04/23 20:16:53;;;;;;;5.12;3.55;;;14.20;92.90;;;;;;7317126;32;20142;-65
2022/04/23 20:20:56;;;;;;;5.65;3.70;;;14.20;92.80;;;;;;7316082;32;20284;-65
2022/04/23 20:24:57;;;;;;;4.05;3.20;;;14.10;92.10;;;;;;7324356;32;20130;-64
2022/04/23 20:29:06;;;;;;;6.15;4.80;;;14.20;91.60;;;;;;7318056;32;20108;-64
2022/04/23 20:33:08;;;;;;;5.43;3.30;;;14.20;92.30;;;;;;7312457;32;20597;-64
2022/04/23 20:41:33;;;;;;;4.12;3.37;;;14.10;92.40;;;;;;7317987;32;20310;-64
2022/04/23 20:45:36;;;;;;;5.43;3.58;;;14.10;91.30;;;;;;7316049;32;20680;-64
2022/04/23 20:49:38;;;;;;;5.75;3.60;;;14.10;91.30;;;;;;7315433;32;20171;-64
2022/04/23 20:53:40;;;;;;;5.68;3.55;;;14.00;91.50;;;;;;7315933;32;20146;-64
2022/04/23 20:57:42;;;;;;;4.93;3.53;;;13.90;91.60;;;;;;7311529;32;20190;-65
2022/04/23 21:01:44;;;;;;;4.70;3.92;;;14.00;91.40;;;;;;7315436;32;20614;-61
2022/04/23 21:05:47;;;;;;;3.95;3.20;;;14.00;91.50;;;;;;7324298;32;20313;-63
2022/04/23 21:09:49;;;;;;;4.22;3.60;;;14.00;90.90;;;;;;7313029;32;20575;-63
2022/04/23 21:13:52;;;;;;;4.68;3.03;;;14.00;91.70;;;;;;7306116;32;20384;-61
2022/04/23 21:17:54;;;;;;;5.20;3.03;;;14.00;91.10;;;;;;7314938;32;20116;-62
2022/04/23 21:21:56;;;;;;;4.50;3.30;;;14.10;91.40;;;;;;7311163;32;20477;-62
2022/04/23 21:26:01;;;;;;;4.03;3.53;;;14.10;90.40;;;;;;7309447;32;20149;-61
2022/04/23 21:30:04;;;;;;;6.22;3.33;;;14.00;91.50;;;;;;7325463;32;20167;-62
2022/04/23 21:34:06;;;;;;;3.20;2.67;;;14.00;90.80;;;;;;7328885;32;20213;-61
2022/04/23 21:38:08;;;;;;;4.07;3.50;;;14.00;90.90;;;;;;7312951;32;20119;-62
2022/04/23 21:46:30;;;;;;;4.00;3.10;;;13.90;90.90;;;;;;7323258;32;20432;-61
2022/04/23 21:50:32;;;;;;;3.95;2.75;;;13.90;91.40;;;;;;7326209;32;20316;-60
2022/04/23 21:54:34;;;;;;;4.32;3.00;;;13.90;91.30;;;;;;7321388;32;20126;-61
2022/04/23 21:58:36;;;;;;;7.40;3.15;;;13.90;92.30;;;;;;7319504;32;20512;-61
2022/04/23 22:02:39;;;;;;;4.07;3.05;;;13.80;91.70;;;;;;7319391;32;20116;-61
2022/04/23 22:06:41;;;;;;;3.50;3.00;;;13.80;91.60;;;;;;7319979;32;20243;-61
2022/04/23 22:10:43;;;;;;;3.50;2.47;;;13.80;92.30;;;;;;7324388;32;20124;-60
2022/04/23 22:14:45;;;;;;;3.50;2.83;;;13.70;92.90;;;;;;7322679;32;20134;-61
2022/04/23 22:18:47;;;;;;;4.15;2.53;;;13.60;93.10;;;;;;7316554;32;20210;-62
2022/04/23 22:22:49;;;;;;;4.37;2.80;;;13.60;93.80;;;;;;7328685;32;20119;-61